createdAt,value
2023-06-23T00:00:24.146Z,20.63
2023-06-23T00:02:51.368Z,20.63
2023-06-23T00:05:18.671Z,20.62
2023-06-23T00:07:45.732Z,20.59
2023-06-23T00:10:12.853Z,20.50
2023-06-23T00:12:44.014Z,20.56
2023-06-23T00:15:13.006Z,20.57
2023-06-23T00:17:42.097Z,20.54
2023-06-23T00:20:14.538Z,20.52
2023-06-23T00:22:42.630Z,20.52
2023-06-23T00:25:11.199Z,20.49
2023-06-23T00:27:43.519Z,20.48
2023-06-23T00:30:12.429Z,20.48
2023-06-23T00:32:40.825Z,20.45
2023-06-23T00:35:12.085Z,20.44
2023-06-23T00:37:39.204Z,20.43
2023-06-23T00:40:12.124Z,20.41
2023-06-23T00:42:50.319Z,20.40
2023-06-23T00:45:17.366Z,20.38
2023-06-23T00:47:46.264Z,20.36
2023-06-23T00:50:20.680Z,20.35
2023-06-23T00:52:51.931Z,20.35
2023-06-23T00:55:23.208Z,20.34
2023-06-23T00:57:51.718Z,20.34
2023-06-23T01:00:20.054Z,20.32
2023-06-23T01:02:50.872Z,20.31
2023-06-23T01:05:21.850Z,20.34
2023-06-23T01:08:28.113Z,20.29
2023-06-23T01:10:58.897Z,20.28
2023-06-23T01:13:55.175Z,20.27
2023-06-23T01:16:32.937Z,20.24
2023-06-23T01:19:30.603Z,20.24
2023-06-23T01:22:18.604Z,20.22
2023-06-23T01:24:48.642Z,20.22
2023-06-23T01:27:35.004Z,20.20
2023-06-23T01:30:07.654Z,20.18
2023-06-23T01:32:52.531Z,20.17
2023-06-23T01:35:25.581Z,20.18
2023-06-23T01:37:59.244Z,20.16
2023-06-23T01:40:27.386Z,20.15
2023-06-23T01:42:58.700Z,20.14
2023-06-23T01:45:30.503Z,20.14
2023-06-23T01:48:02.764Z,20.12
2023-06-23T01:50:32.961Z,20.13
2023-06-23T01:53:02.463Z,20.12
2023-06-23T01:55:32.277Z,20.10
2023-06-23T01:58:02.199Z,20.10
2023-06-23T02:00:30.115Z,20.09
2023-06-23T02:02:59.088Z,20.10
2023-06-23T02:05:28.654Z,20.08
2023-06-23T02:07:58.739Z,20.08
2023-06-23T02:10:29.107Z,20.07
2023-06-23T02:12:58.259Z,20.06
2023-06-23T02:15:28.121Z,20.06
2023-06-23T02:17:57.472Z,20.05
2023-06-23T02:20:25.159Z,20.04
2023-06-23T02:22:54.278Z,20.03
2023-06-23T02:25:23.546Z,20.03
2023-06-23T02:27:51.869Z,20.02
2023-06-23T02:30:19.713Z,20.02
2023-06-23T02:32:50.004Z,20.02
2023-06-23T02:35:17.711Z,20.01
2023-06-23T02:37:54.409Z,19.95
2023-06-23T02:40:24.779Z,20.01
2023-06-23T02:43:01.373Z,20.01
2023-06-23T02:45:35.247Z,19.99
2023-06-23T02:48:04.643Z,19.99
2023-06-23T02:50:35.774Z,19.99
2023-06-23T02:53:10.361Z,19.98
2023-06-23T02:55:46.197Z,19.98
2023-06-23T02:58:17.171Z,19.96
2023-06-23T03:00:44.579Z,19.95
2023-06-23T03:03:16.372Z,19.98
2023-06-23T03:05:44.787Z,19.95
2023-06-23T03:08:12.337Z,19.96
2023-06-23T03:10:39.358Z,19.95
2023-06-23T03:13:06.396Z,19.95
2023-06-23T03:15:34.096Z,19.96
2023-06-23T03:18:26.397Z,19.94
2023-06-23T03:20:56.577Z,19.93
2023-06-23T03:23:26.897Z,19.92
2023-06-23T03:25:55.250Z,19.92
2023-06-23T03:28:28.952Z,19.90
2023-06-23T03:31:04.529Z,19.89
2023-06-23T03:33:35.224Z,19.89
2023-06-23T03:36:16.572Z,19.87
2023-06-23T03:38:58.759Z,19.87
2023-06-23T03:41:29.777Z,19.86
2023-06-23T03:43:59.535Z,19.87
2023-06-23T03:46:32.846Z,19.84
2023-06-23T03:49:03.287Z,19.86
2023-06-23T03:51:34.094Z,19.86
2023-06-23T03:54:03.640Z,19.88
2023-06-23T03:56:34.005Z,19.85
2023-06-23T03:59:03.734Z,19.86
2023-06-23T04:01:34.492Z,19.86
2023-06-23T04:04:04.297Z,19.83
2023-06-23T04:06:32.707Z,19.82
2023-06-23T04:09:02.966Z,19.82
2023-06-23T04:11:31.933Z,19.81
2023-06-23T04:14:00.770Z,19.80
2023-06-23T04:16:28.441Z,19.80
2023-06-23T04:18:57.460Z,19.71
2023-06-23T04:21:25.588Z,19.79
2023-06-23T04:23:54.801Z,19.81
2023-06-23T04:26:21.788Z,19.79
2023-06-23T04:28:53.893Z,19.71
2023-06-23T04:31:23.112Z,19.70
2023-06-23T04:33:50.233Z,19.74
2023-06-23T04:36:19.709Z,19.78
2023-06-23T04:39:00.862Z,19.78
2023-06-23T04:41:28.731Z,19.82
2023-06-23T04:44:00.149Z,19.79
2023-06-23T04:46:31.215Z,19.80
2023-06-23T04:49:03.844Z,19.78
2023-06-23T04:51:37.015Z,19.81
2023-06-23T04:54:12.251Z,19.81
2023-06-23T04:56:41.938Z,19.81
2023-06-23T04:59:12.279Z,19.81
2023-06-23T05:01:40.059Z,19.82
2023-06-23T05:04:09.387Z,19.83
2023-06-23T05:06:41.119Z,19.90
2023-06-23T05:09:10.121Z,19.93
2023-06-23T05:11:37.686Z,19.99
2023-06-23T05:14:08.304Z,20.03
2023-06-23T05:16:37.493Z,20.06
2023-06-23T05:19:10.134Z,20.07
2023-06-23T05:21:37.987Z,20.11
2023-06-23T05:24:10.450Z,20.03
2023-06-23T05:26:40.487Z,20.10
2023-06-23T05:29:09.813Z,20.16
2023-06-23T05:31:42.444Z,20.19
2023-06-23T05:34:13.223Z,20.17
2023-06-23T05:36:41.635Z,20.19
2023-06-23T05:39:11.690Z,20.20
2023-06-23T05:41:38.846Z,20.18
2023-06-23T05:44:06.035Z,20.20
2023-06-23T05:46:36.567Z,20.22
2023-06-23T05:49:18.582Z,20.23
2023-06-23T05:51:46.916Z,20.24
2023-06-23T05:54:16.256Z,20.24
2023-06-23T05:56:52.073Z,20.26
2023-06-23T05:59:43.888Z,20.27
2023-06-23T06:02:20.053Z,20.28
2023-06-23T06:04:52.834Z,20.31
2023-06-23T06:07:21.785Z,20.28
2023-06-23T06:09:50.908Z,20.24
2023-06-23T06:12:19.026Z,20.23
2023-06-23T06:14:47.996Z,20.23
2023-06-23T06:17:17.696Z,20.22
2023-06-23T06:19:46.997Z,20.22
2023-06-23T06:22:17.708Z,20.23
2023-06-23T06:24:47.483Z,20.22
2023-06-23T06:27:16.529Z,20.23
2023-06-23T06:29:45.167Z,20.24
2023-06-23T06:32:14.402Z,20.12
2023-06-23T06:34:44.919Z,19.98
2023-06-23T06:37:13.252Z,19.92
2023-06-23T06:39:42.829Z,19.91
2023-06-23T06:42:10.371Z,19.96
2023-06-23T06:44:37.858Z,19.99
2023-06-23T06:47:08.057Z,19.99
2023-06-23T06:49:36.118Z,19.96
2023-06-23T06:52:04.631Z,19.97
2023-06-23T06:54:31.775Z,19.96
2023-06-23T06:56:59.726Z,19.94
2023-06-23T06:59:26.966Z,19.94
2023-06-23T07:01:54.807Z,19.92
2023-06-23T07:04:22.956Z,19.90
2023-06-23T07:06:54.852Z,19.89
2023-06-23T07:09:22.310Z,19.89
2023-06-23T07:11:50.586Z,19.89
2023-06-23T07:14:18.075Z,19.88
2023-06-23T07:16:45.089Z,19.87
2023-06-23T07:19:12.533Z,19.87
2023-06-23T07:21:39.644Z,19.86
2023-06-23T07:24:07.210Z,19.86
2023-06-23T07:26:35.134Z,19.85
2023-06-23T07:29:02.219Z,19.84
2023-06-23T07:31:29.574Z,19.85
2023-06-23T07:33:57.885Z,19.84
2023-06-23T07:36:25.053Z,19.86
2023-06-23T07:38:52.147Z,19.86
2023-06-23T07:41:19.188Z,19.86
2023-06-23T07:43:46.449Z,19.84
2023-06-23T07:46:13.855Z,19.84
2023-06-23T07:48:41.366Z,19.84
2023-06-23T07:51:08.814Z,19.83
2023-06-23T07:53:36.213Z,19.84
2023-06-23T07:56:03.355Z,19.83
2023-06-23T07:58:30.411Z,19.85
2023-06-23T08:00:57.585Z,19.83
2023-06-23T08:03:24.956Z,19.83
2023-06-23T08:05:52.189Z,19.81
2023-06-23T08:08:19.352Z,19.81
2023-06-23T08:10:46.675Z,19.83
2023-06-23T08:13:13.979Z,19.82
2023-06-23T08:15:42.435Z,19.84
2023-06-23T08:18:10.063Z,19.82
2023-06-23T08:20:37.257Z,19.81
2023-06-23T08:23:04.308Z,19.81
2023-06-23T08:25:31.877Z,19.82
2023-06-23T08:27:59.244Z,19.83
2023-06-23T08:30:28.676Z,19.82
2023-06-23T08:32:56.112Z,19.81
2023-06-23T08:35:24.099Z,19.81
2023-06-23T08:37:51.402Z,19.82
2023-06-23T08:40:18.965Z,19.82
2023-06-23T08:42:46.882Z,19.81
2023-06-23T08:45:17.263Z,19.82
2023-06-23T08:47:53.293Z,19.81
2023-06-23T08:50:22.484Z,19.82
2023-06-23T08:52:49.926Z,19.80
2023-06-23T08:55:17.064Z,19.81
2023-06-23T08:57:44.253Z,19.78
2023-06-23T09:00:12.122Z,19.80
2023-06-23T09:02:39.532Z,19.81
2023-06-23T09:05:06.794Z,19.81
2023-06-23T09:07:34.117Z,19.83
2023-06-23T09:10:01.970Z,19.80
2023-06-23T09:12:29.258Z,19.77
2023-06-23T09:15:00.175Z,19.77
2023-06-23T09:17:28.867Z,19.76
2023-06-23T09:19:56.753Z,19.74
2023-06-23T09:22:25.266Z,19.74
2023-06-23T09:24:52.336Z,19.74
2023-06-23T09:27:19.604Z,19.66
2023-06-23T09:30:01.077Z,19.72
2023-06-23T09:32:31.222Z,19.72
2023-06-23T09:34:58.672Z,19.73
2023-06-23T09:37:26.989Z,19.74
2023-06-23T09:39:57.409Z,19.71
2023-06-23T09:42:26.580Z,19.72
2023-06-23T09:44:53.815Z,19.72
2023-06-23T09:47:21.416Z,19.72
2023-06-23T09:49:50.386Z,19.71
2023-06-23T09:52:28.115Z,19.71
2023-06-23T09:54:56.869Z,19.73
2023-06-23T09:57:25.013Z,19.75
2023-06-23T09:59:54.192Z,19.74
2023-06-23T10:02:28.216Z,19.66
2023-06-23T10:05:08.220Z,19.76
2023-06-23T10:07:35.777Z,19.78
2023-06-23T10:10:21.556Z,19.75
2023-06-23T10:12:53.874Z,19.78
2023-06-23T10:15:21.570Z,19.78
2023-06-23T10:17:49.511Z,19.78
2023-06-23T10:20:17.215Z,19.77
2023-06-23T10:22:46.202Z,19.77
2023-06-23T10:25:13.539Z,19.78
2023-06-23T10:27:43.465Z,19.80
2023-06-23T10:30:16.472Z,19.79
2023-06-23T10:32:49.346Z,19.78
2023-06-23T10:35:21.554Z,19.79
2023-06-23T10:37:50.496Z,19.78
2023-06-23T10:40:23.824Z,19.81
2023-06-23T10:42:52.271Z,19.80
2023-06-23T10:45:19.635Z,19.81
2023-06-23T10:47:49.708Z,19.84
2023-06-23T10:50:17.245Z,19.90
2023-06-23T10:52:44.488Z,19.93
2023-06-23T10:55:38.274Z,19.94
2023-06-23T10:58:18.051Z,19.98
2023-06-23T11:00:55.250Z,20.02
2023-06-23T11:03:37.515Z,20.04
2023-06-23T11:06:09.611Z,20.07
2023-06-23T11:08:41.883Z,20.07
2023-06-23T11:11:19.534Z,20.09
2023-06-23T11:13:48.537Z,20.13
2023-06-23T11:16:33.045Z,20.18
2023-06-23T11:19:02.444Z,20.15
2023-06-23T11:21:39.121Z,20.17
2023-06-23T11:24:16.238Z,20.15
2023-06-23T11:26:56.909Z,20.17
2023-06-23T11:29:24.735Z,20.18
2023-06-23T11:32:08.305Z,20.19
2023-06-23T11:35:08.677Z,20.20
2023-06-23T11:37:36.279Z,20.23
2023-06-23T11:40:05.061Z,20.24
2023-06-23T11:42:32.413Z,20.25
2023-06-23T11:44:59.885Z,20.25
2023-06-23T11:47:31.117Z,20.28
2023-06-23T11:50:03.950Z,20.29
2023-06-23T11:52:31.588Z,20.32
2023-06-23T11:54:58.673Z,20.33
2023-06-23T11:57:26.178Z,20.30
2023-06-23T11:59:54.405Z,20.31
2023-06-23T12:02:22.237Z,20.30
2023-06-23T12:04:52.762Z,20.32
2023-06-23T12:07:21.145Z,20.35
2023-06-23T12:09:48.295Z,20.35
2023-06-23T12:12:17.527Z,20.35
2023-06-23T12:14:45.334Z,20.33
2023-06-23T12:17:14.254Z,20.34
2023-06-23T12:19:43.239Z,20.35
2023-06-23T12:22:19.734Z,20.36
2023-06-23T12:24:47.870Z,20.41
2023-06-23T12:27:15.233Z,20.39
2023-06-23T12:29:42.453Z,20.39
2023-06-23T12:32:10.538Z,20.41
2023-06-23T12:34:43.942Z,20.34
2023-06-23T12:37:18.988Z,20.43
2023-06-23T12:39:53.940Z,20.39
2023-06-23T12:42:22.009Z,20.45
2023-06-23T12:44:50.562Z,20.44
2023-06-23T12:47:19.675Z,20.41
2023-06-23T12:49:46.834Z,20.43
2023-06-23T12:52:13.962Z,20.45
2023-06-23T12:54:40.989Z,20.43
2023-06-23T12:57:10.926Z,20.44
2023-06-23T12:59:37.973Z,20.38
2023-06-23T13:02:05.353Z,20.47
2023-06-23T13:04:32.437Z,20.47
2023-06-23T13:06:59.725Z,20.47
2023-06-23T13:09:26.847Z,20.50
2023-06-23T13:11:54.106Z,20.51
2023-06-23T13:14:21.614Z,20.50
2023-06-23T13:16:49.330Z,20.47
2023-06-23T13:19:17.250Z,20.47
2023-06-23T13:21:47.547Z,20.48
2023-06-23T13:24:14.995Z,20.50
2023-06-23T13:26:45.000Z,20.50
2023-06-23T13:29:12.622Z,20.48
2023-06-23T13:31:40.054Z,20.48
2023-06-23T13:34:07.243Z,20.50
2023-06-23T13:36:34.517Z,20.42
2023-06-23T13:39:02.289Z,20.48
2023-06-23T13:41:29.502Z,20.47
2023-06-23T13:43:56.679Z,20.44
2023-06-23T13:46:24.081Z,20.46
2023-06-23T13:48:51.952Z,20.46
2023-06-23T13:51:19.218Z,20.47
2023-06-23T13:53:46.421Z,20.47
2023-06-23T13:56:14.382Z,20.34
2023-06-23T13:58:41.694Z,20.45
2023-06-23T14:01:08.944Z,20.43
2023-06-23T14:03:37.417Z,20.43
2023-06-23T14:06:05.722Z,20.42
2023-06-23T14:08:35.805Z,20.42
2023-06-23T14:11:03.438Z,20.40
2023-06-23T14:13:30.648Z,20.35
2023-06-23T14:15:58.124Z,20.42
2023-06-23T14:18:25.732Z,20.44
2023-06-23T14:20:53.009Z,20.44
2023-06-23T14:23:20.219Z,20.47
2023-06-23T14:25:47.362Z,20.47
2023-06-23T14:28:16.147Z,20.48
2023-06-23T14:30:43.381Z,20.51
2023-06-23T14:33:10.949Z,20.51
2023-06-23T14:35:38.330Z,20.51
2023-06-23T14:38:07.343Z,20.52
2023-06-23T14:40:34.634Z,20.52
2023-06-23T14:43:02.354Z,20.44
2023-06-23T14:45:36.498Z,20.51
2023-06-23T14:48:04.404Z,20.50
2023-06-23T14:50:31.633Z,20.50
2023-06-23T14:52:59.755Z,20.52
2023-06-23T14:55:27.213Z,20.53
2023-06-23T14:57:54.655Z,20.52
2023-06-23T15:00:22.540Z,20.53
2023-06-23T15:02:49.934Z,20.53
2023-06-23T15:05:17.519Z,20.52
2023-06-23T15:07:44.838Z,20.54
2023-06-23T15:10:12.082Z,20.54
2023-06-23T15:12:39.131Z,20.53
2023-06-23T15:15:06.718Z,20.55
2023-06-23T15:17:34.124Z,20.55
2023-06-23T15:20:01.366Z,20.55
2023-06-23T15:22:28.808Z,20.53
2023-06-23T15:24:55.883Z,20.54
2023-06-23T15:27:23.193Z,20.55
2023-06-23T15:29:50.384Z,20.55
2023-06-23T15:32:17.538Z,20.54
2023-06-23T15:34:44.876Z,20.54
2023-06-23T15:37:12.359Z,20.55
2023-06-23T15:39:42.712Z,20.55
2023-06-23T15:42:12.952Z,20.53
2023-06-23T15:44:43.251Z,20.53
2023-06-23T15:47:10.736Z,20.46
2023-06-23T15:49:38.312Z,20.45
2023-06-23T15:52:07.088Z,20.40
2023-06-23T15:54:36.122Z,20.36
2023-06-23T15:57:03.761Z,20.35
2023-06-23T15:59:30.830Z,20.34
2023-06-23T16:01:57.974Z,20.35
2023-06-23T16:04:25.577Z,20.38
2023-06-23T16:06:52.770Z,20.40
2023-06-23T16:09:19.946Z,20.39
2023-06-23T16:11:46.939Z,20.37
2023-06-23T16:14:13.991Z,20.39
2023-06-23T16:16:42.614Z,20.38
2023-06-23T16:19:10.047Z,20.39
2023-06-23T16:21:37.371Z,20.44
2023-06-23T16:24:04.881Z,20.44
2023-06-23T16:26:32.022Z,20.45
2023-06-23T16:28:59.694Z,20.47
2023-06-23T16:31:26.974Z,20.48
2023-06-23T16:33:56.692Z,20.49
2023-06-23T16:36:25.916Z,20.52
2023-06-23T16:38:52.937Z,20.54
2023-06-23T16:41:20.292Z,20.55
2023-06-23T16:43:47.479Z,20.55
2023-06-23T16:46:14.769Z,20.55
2023-06-23T16:48:41.967Z,20.54
2023-06-23T16:51:09.307Z,20.54
2023-06-23T16:53:36.721Z,20.52
2023-06-23T16:56:06.860Z,20.51
2023-06-23T16:58:34.982Z,20.49
2023-06-23T17:01:02.592Z,20.50
2023-06-23T17:03:29.868Z,20.50
2023-06-23T17:05:57.046Z,20.51
2023-06-23T17:08:24.271Z,20.51
2023-06-23T17:10:51.452Z,20.50
2023-06-23T17:13:18.498Z,20.53
2023-06-23T17:15:45.894Z,20.47
2023-06-23T17:18:12.915Z,20.43
2023-06-23T17:20:39.916Z,20.47
2023-06-23T17:23:07.271Z,20.46
2023-06-23T17:25:34.539Z,20.39
2023-06-23T17:28:02.063Z,20.36
2023-06-23T17:30:29.227Z,20.31
2023-06-23T17:32:56.547Z,20.30
2023-06-23T17:35:23.691Z,20.32
2023-06-23T17:37:50.753Z,20.28
2023-06-23T17:40:21.612Z,20.36
2023-06-23T17:42:48.839Z,20.33
2023-06-23T17:45:16.004Z,20.29
2023-06-23T17:47:43.443Z,20.26
2023-06-23T17:50:11.636Z,20.23
2023-06-23T17:52:38.869Z,20.24
2023-06-23T17:55:06.680Z,20.25
2023-06-23T17:57:33.771Z,20.23
2023-06-23T18:00:01.166Z,20.29
2023-06-23T18:02:29.229Z,20.31
2023-06-23T18:04:56.453Z,20.38
2023-06-23T18:07:24.121Z,20.35
2023-06-23T18:09:51.486Z,20.43
2023-06-23T18:12:18.837Z,20.45
2023-06-23T18:14:46.122Z,20.46
2023-06-23T18:17:13.775Z,20.47
2023-06-23T18:19:42.157Z,20.48
2023-06-23T18:22:09.316Z,20.50
2023-06-23T18:24:36.488Z,20.51
2023-06-23T18:27:04.184Z,20.53
2023-06-23T18:29:31.371Z,20.52
2023-06-23T18:32:08.297Z,20.46
2023-06-23T18:34:36.519Z,20.47
2023-06-23T18:37:03.748Z,20.51
2023-06-23T18:39:31.055Z,20.56
2023-06-23T18:41:58.943Z,20.56
2023-06-23T18:44:26.099Z,20.58
2023-06-23T18:46:53.339Z,20.60
2023-06-23T18:49:20.583Z,20.58
2023-06-23T18:51:48.119Z,20.57
2023-06-23T18:54:15.244Z,20.63
2023-06-23T18:56:42.503Z,20.62
2023-06-23T18:59:09.834Z,20.62
2023-06-23T19:01:37.200Z,20.63
2023-06-23T19:04:04.673Z,20.64
2023-06-23T19:06:31.862Z,20.63
2023-06-23T19:09:04.126Z,20.66
2023-06-23T19:11:32.553Z,20.67
2023-06-23T19:14:03.147Z,20.69
2023-06-23T19:16:31.330Z,20.71
2023-06-23T19:18:59.268Z,20.70
2023-06-23T19:21:27.019Z,20.70
2023-06-23T19:23:55.517Z,20.75
2023-06-23T19:26:22.779Z,20.77
2023-06-23T19:28:50.356Z,20.81
2023-06-23T19:31:17.537Z,20.76
2023-06-23T19:33:44.783Z,20.84
2023-06-23T19:36:12.314Z,20.86
2023-06-23T19:38:39.742Z,20.89
2023-06-23T19:41:07.130Z,20.90
2023-06-23T19:43:34.410Z,20.90
2023-06-23T19:46:03.506Z,20.93
2023-06-23T19:48:30.901Z,20.99
2023-06-23T19:50:58.096Z,21.05
2023-06-23T19:53:25.403Z,21.10
2023-06-23T19:55:55.730Z,21.07
2023-06-23T19:58:23.162Z,21.14
2023-06-23T20:00:50.899Z,21.18
2023-06-23T20:03:18.417Z,21.18
2023-06-23T20:05:45.847Z,21.24
2023-06-23T20:08:13.235Z,21.24
2023-06-23T20:10:40.844Z,21.24
2023-06-23T20:13:08.737Z,21.27
2023-06-23T20:15:36.463Z,21.29
2023-06-23T20:18:04.040Z,21.23
2023-06-23T20:20:31.679Z,21.32
2023-06-23T20:22:59.426Z,21.32
2023-06-23T20:25:27.057Z,21.30
2023-06-23T20:27:54.273Z,21.30
2023-06-23T20:30:21.615Z,21.32
2023-06-23T20:32:48.897Z,21.32
2023-06-23T20:35:16.505Z,21.31
2023-06-23T20:37:44.015Z,21.33
2023-06-23T20:40:14.677Z,21.34
2023-06-23T20:42:42.172Z,21.39
2023-06-23T20:45:15.294Z,21.34
2023-06-23T20:47:45.653Z,21.32
2023-06-23T20:50:13.428Z,21.31
2023-06-23T20:52:41.217Z,21.31
2023-06-23T20:55:09.094Z,21.30
2023-06-23T20:57:37.616Z,21.30
2023-06-23T21:00:05.919Z,21.24
2023-06-23T21:02:33.279Z,21.23
2023-06-23T21:05:01.021Z,21.32
2023-06-23T21:07:29.044Z,21.31
2023-06-23T21:09:56.463Z,21.33
2023-06-23T21:12:25.151Z,21.32
2023-06-23T21:15:04.648Z,21.34
2023-06-23T21:17:34.443Z,21.34
2023-06-23T21:20:02.052Z,21.19
2023-06-23T21:22:29.817Z,21.19
2023-06-23T21:24:57.084Z,21.16
2023-06-23T21:27:25.780Z,21.23
2023-06-23T21:29:53.506Z,21.28
2023-06-23T21:32:20.831Z,21.26
2023-06-23T21:34:48.333Z,21.25
2023-06-23T21:37:16.895Z,21.24
2023-06-23T21:39:44.333Z,21.21
2023-06-23T21:42:11.624Z,21.09
2023-06-23T21:44:38.997Z,21.11
2023-06-23T21:47:06.807Z,21.06
2023-06-23T21:49:34.274Z,21.02
2023-06-23T21:52:01.754Z,20.99
2023-06-23T21:54:29.071Z,20.96
2023-06-23T21:56:56.291Z,20.94
2023-06-23T21:59:23.765Z,20.91
2023-06-23T22:01:51.629Z,20.89
2023-06-23T22:04:18.780Z,20.81
2023-06-23T22:06:46.242Z,20.86
2023-06-23T22:09:13.571Z,20.84
2023-06-23T22:11:40.747Z,20.81
2023-06-23T22:14:07.905Z,20.81
2023-06-23T22:16:35.322Z,20.79
2023-06-23T22:19:02.537Z,20.78
2023-06-23T22:21:29.981Z,20.77
2023-06-23T22:23:57.327Z,20.76
2023-06-23T22:26:24.607Z,20.73
2023-06-23T22:28:51.754Z,20.73
2023-06-23T22:31:19.079Z,20.71
2023-06-23T22:33:46.618Z,20.70
2023-06-23T22:36:13.979Z,20.69
2023-06-23T22:38:41.073Z,20.67
2023-06-23T22:41:08.555Z,20.68
2023-06-23T22:43:35.784Z,20.67
2023-06-23T22:46:03.172Z,20.65
2023-06-23T22:48:30.322Z,20.63
2023-06-23T22:50:57.530Z,20.62
2023-06-23T22:53:24.658Z,20.55
2023-06-23T22:55:52.221Z,20.61
2023-06-23T22:58:19.398Z,20.60
2023-06-23T23:00:46.452Z,20.60
2023-06-23T23:03:13.849Z,20.60
2023-06-23T23:05:42.314Z,20.58
2023-06-23T23:08:09.444Z,20.57
2023-06-23T23:10:37.396Z,20.56
2023-06-23T23:13:05.591Z,20.55
2023-06-23T23:15:32.770Z,20.54
2023-06-23T23:17:59.868Z,20.54
2023-06-23T23:20:27.003Z,20.53
2023-06-23T23:22:54.311Z,20.52
2023-06-23T23:25:22.408Z,20.46
2023-06-23T23:27:52.644Z,20.51
2023-06-23T23:30:20.056Z,20.51
2023-06-23T23:32:50.562Z,20.49
2023-06-23T23:35:18.128Z,20.49
2023-06-23T23:37:46.019Z,20.49
2023-06-23T23:40:14.420Z,20.48
2023-06-23T23:42:45.873Z,20.47
2023-06-23T23:45:13.951Z,20.46
2023-06-23T23:47:42.604Z,20.46
2023-06-23T23:50:10.271Z,20.45
2023-06-23T23:52:37.615Z,20.44
2023-06-23T23:55:05.078Z,20.45
2023-06-23T23:57:32.419Z,20.43
2023-06-23T23:59:59.480Z,20.42
